sensor_id;sensor_type;location;lat;lon;timestamp;temperature;humidity
3550;DHT22;45572;48.804;8.330;2022-12-07T00:01:05;6.30;94.10
3550;DHT22;45572;48.804;8.330;2022-12-07T00:03:34;6.40;94.00
3550;DHT22;45572;48.804;8.330;2022-12-07T00:06:02;6.40;94.00
3550;DHT22;45572;48.804;8.330;2022-12-07T00:08:31;6.40;93.90
3550;DHT22;45572;48.804;8.330;2022-12-07T00:11:01;6.40;93.80
3550;DHT22;45572;48.804;8.330;2022-12-07T00:13:31;6.40;93.70
3550;DHT22;45572;48.804;8.330;2022-12-07T00:16:00;6.40;93.50
3550;DHT22;45572;48.804;8.330;2022-12-07T00:18:28;6.40;93.60
3550;DHT22;45572;48.804;8.330;2022-12-07T00:20:59;6.40;93.80
3550;DHT22;45572;48.804;8.330;2022-12-07T00:23:28;6.30;94.00
3550;DHT22;45572;48.804;8.330;2022-12-07T00:26:02;6.30;94.20
3550;DHT22;45572;48.804;8.330;2022-12-07T00:28:31;6.30;94.00
3550;DHT22;45572;48.804;8.330;2022-12-07T00:31:01;6.30;93.90
3550;DHT22;45572;48.804;8.330;2022-12-07T00:33:29;6.10;94.00
3550;DHT22;45572;48.804;8.330;2022-12-07T00:35:58;6.10;94.70
3550;DHT22;45572;48.804;8.330;2022-12-07T00:38:28;6.10;94.70
3550;DHT22;45572;48.804;8.330;2022-12-07T00:40:57;6.20;94.50
3550;DHT22;45572;48.804;8.330;2022-12-07T00:43:26;6.20;94.50
3550;DHT22;45572;48.804;8.330;2022-12-07T00:45:55;6.20;94.30
3550;DHT22;45572;48.804;8.330;2022-12-07T00:48:24;6.20;94.40
3550;DHT22;45572;48.804;8.330;2022-12-07T00:50:52;6.20;94.30
3550;DHT22;45572;48.804;8.330;2022-12-07T00:53:20;6.20;94.30
3550;DHT22;45572;48.804;8.330;2022-12-07T00:55:48;6.20;94.30
3550;DHT22;45572;48.804;8.330;2022-12-07T00:58:16;6.30;94.20
3550;DHT22;45572;48.804;8.330;2022-12-07T01:00:43;6.20;94.10
3550;DHT22;45572;48.804;8.330;2022-12-07T01:03:14;6.20;94.10
3550;DHT22;45572;48.804;8.330;2022-12-07T01:05:49;6.20;93.90
3550;DHT22;45572;48.804;8.330;2022-12-07T01:08:17;6.20;94.10
3550;DHT22;45572;48.804;8.330;2022-12-07T01:10:46;6.00;94.10
3550;DHT22;45572;48.804;8.330;2022-12-07T01:13:14;5.80;94.80
3550;DHT22;45572;48.804;8.330;2022-12-07T01:15:43;5.80;95.20
3550;DHT22;45572;48.804;8.330;2022-12-07T01:18:12;5.90;95.10
3550;DHT22;45572;48.804;8.330;2022-12-07T01:20:40;5.90;95.00
3550;DHT22;45572;48.804;8.330;2022-12-07T01:23:07;6.00;94.80
3550;DHT22;45572;48.804;8.330;2022-12-07T01:25:35;6.00;94.80
3550;DHT22;45572;48.804;8.330;2022-12-07T01:28:03;6.10;94.70
3550;DHT22;45572;48.804;8.330;2022-12-07T01:30:31;6.10;94.30
3550;DHT22;45572;48.804;8.330;2022-12-07T01:32:59;6.10;94.10
3550;DHT22;45572;48.804;8.330;2022-12-07T01:35:28;6.10;94.00
3550;DHT22;45572;48.804;8.330;2022-12-07T01:37:56;6.10;94.00
3550;DHT22;45572;48.804;8.330;2022-12-07T01:40:23;6.00;94.10
3550;DHT22;45572;48.804;8.330;2022-12-07T01:42:51;6.00;94.30
3550;DHT22;45572;48.804;8.330;2022-12-07T01:45:37;6.00;94.30
3550;DHT22;45572;48.804;8.330;2022-12-07T01:48:06;6.00;94.50
3550;DHT22;45572;48.804;8.330;2022-12-07T01:50:36;6.00;94.30
3550;DHT22;45572;48.804;8.330;2022-12-07T01:53:08;6.00;94.30
3550;DHT22;45572;48.804;8.330;2022-12-07T01:55:40;6.10;94.20
3550;DHT22;45572;48.804;8.330;2022-12-07T01:58:11;6.10;94.00
3550;DHT22;45572;48.804;8.330;2022-12-07T02:00:40;6.10;93.90
3550;DHT22;45572;48.804;8.330;2022-12-07T02:03:11;6.00;93.90
3550;DHT22;45572;48.804;8.330;2022-12-07T02:05:43;5.90;94.00
3550;DHT22;45572;48.804;8.330;2022-12-07T02:08:13;5.70;94.40
3550;DHT22;45572;48.804;8.330;2022-12-07T02:10:41;5.70;94.80
3550;DHT22;45572;48.804;8.330;2022-12-07T02:13:11;5.70;94.90
3550;DHT22;45572;48.804;8.330;2022-12-07T02:15:53;5.80;94.90
3550;DHT22;45572;48.804;8.330;2022-12-07T02:18:28;5.70;94.70
3550;DHT22;45572;48.804;8.330;2022-12-07T02:21:05;5.80;94.90
3550;DHT22;45572;48.804;8.330;2022-12-07T02:23:41;5.80;94.90
3550;DHT22;45572;48.804;8.330;2022-12-07T02:26:35;5.90;94.80
3550;DHT22;45572;48.804;8.330;2022-12-07T02:29:14;5.90;94.70
3550;DHT22;45572;48.804;8.330;2022-12-07T02:31:48;5.90;94.50
3550;DHT22;45572;48.804;8.330;2022-12-07T02:34:22;5.90;94.30
3550;DHT22;45572;48.804;8.330;2022-12-07T02:36:57;5.90;94.20
3550;DHT22;45572;48.804;8.330;2022-12-07T02:39:34;5.90;94.10
3550;DHT22;45572;48.804;8.330;2022-12-07T02:42:15;5.90;94.00
3550;DHT22;45572;48.804;8.330;2022-12-07T02:44:46;5.80;94.20
3550;DHT22;45572;48.804;8.330;2022-12-07T02:47:17;5.80;94.20
3550;DHT22;45572;48.804;8.330;2022-12-07T02:49:47;5.80;94.10
3550;DHT22;45572;48.804;8.330;2022-12-07T02:52:14;5.70;94.10
3550;DHT22;45572;48.804;8.330;2022-12-07T02:54:42;5.70;93.90
3550;DHT22;45572;48.804;8.330;2022-12-07T02:57:24;5.60;93.90
3550;DHT22;45572;48.804;8.330;2022-12-07T03:00:01;5.60;93.90
3550;DHT22;45572;48.804;8.330;2022-12-07T03:02:38;5.50;93.80
3550;DHT22;45572;48.804;8.330;2022-12-07T03:05:20;5.40;93.90
3550;DHT22;45572;48.804;8.330;2022-12-07T03:07:59;5.30;94.10
3550;DHT22;45572;48.804;8.330;2022-12-07T03:10:35;5.30;94.10
3550;DHT22;45572;48.804;8.330;2022-12-07T03:13:12;5.30;94.30
3550;DHT22;45572;48.804;8.330;2022-12-07T03:15:50;5.30;94.40
3550;DHT22;45572;48.804;8.330;2022-12-07T03:18:23;5.20;94.70
3550;DHT22;45572;48.804;8.330;2022-12-07T03:20:55;5.10;94.70
3550;DHT22;45572;48.804;8.330;2022-12-07T03:23:25;5.10;94.80
3550;DHT22;45572;48.804;8.330;2022-12-07T03:26:00;5.00;94.80
3550;DHT22;45572;48.804;8.330;2022-12-07T03:28:32;4.90;94.90
3550;DHT22;45572;48.804;8.330;2022-12-07T03:31:07;4.90;95.20
3550;DHT22;45572;48.804;8.330;2022-12-07T03:33:42;4.90;95.40
3550;DHT22;45572;48.804;8.330;2022-12-07T03:36:15;4.90;95.40
3550;DHT22;45572;48.804;8.330;2022-12-07T03:38:46;5.00;95.50
3550;DHT22;45572;48.804;8.330;2022-12-07T03:41:20;5.10;95.40
3550;DHT22;45572;48.804;8.330;2022-12-07T03:43:50;5.20;95.40
3550;DHT22;45572;48.804;8.330;2022-12-07T03:46:22;5.20;95.30
3550;DHT22;45572;48.804;8.330;2022-12-07T03:49:00;5.10;95.00
3550;DHT22;45572;48.804;8.330;2022-12-07T03:51:36;5.10;95.00
3550;DHT22;45572;48.804;8.330;2022-12-07T03:54:10;4.90;95.10
3550;DHT22;45572;48.804;8.330;2022-12-07T03:56:39;4.70;95.20
3550;DHT22;45572;48.804;8.330;2022-12-07T03:59:08;4.70;95.80
3550;DHT22;45572;48.804;8.330;2022-12-07T04:01:38;4.80;95.90
3550;DHT22;45572;48.804;8.330;2022-12-07T04:04:07;4.90;95.90
3550;DHT22;45572;48.804;8.330;2022-12-07T04:06:34;5.00;95.80
3550;DHT22;45572;48.804;8.330;2022-12-07T04:09:02;5.10;95.60
3550;DHT22;45572;48.804;8.330;2022-12-07T04:11:30;5.00;95.10
3550;DHT22;45572;48.804;8.330;2022-12-07T04:13:58;4.90;95.00
3550;DHT22;45572;48.804;8.330;2022-12-07T04:16:41;4.80;95.00
3550;DHT22;45572;48.804;8.330;2022-12-07T04:19:10;4.80;94.80
3550;DHT22;45572;48.804;8.330;2022-12-07T04:21:39;4.70;94.70
3550;DHT22;45572;48.804;8.330;2022-12-07T04:24:06;4.70;94.70
3550;DHT22;45572;48.804;8.330;2022-12-07T04:26:34;4.60;94.80
3550;DHT22;45572;48.804;8.330;2022-12-07T04:29:02;4.50;94.90
3550;DHT22;45572;48.804;8.330;2022-12-07T04:31:33;4.40;94.90
3550;DHT22;45572;48.804;8.330;2022-12-07T04:34:03;4.30;95.00
3550;DHT22;45572;48.804;8.330;2022-12-07T04:36:32;4.10;95.10
3550;DHT22;45572;48.804;8.330;2022-12-07T04:39:00;4.00;95.00
3550;DHT22;45572;48.804;8.330;2022-12-07T04:41:28;3.90;95.20
3550;DHT22;45572;48.804;8.330;2022-12-07T04:43:56;3.90;95.30
3550;DHT22;45572;48.804;8.330;2022-12-07T04:46:25;3.90;95.50
3550;DHT22;45572;48.804;8.330;2022-12-07T04:48:54;3.90;95.60
3550;DHT22;45572;48.804;8.330;2022-12-07T04:51:26;3.80;95.60
3550;DHT22;45572;48.804;8.330;2022-12-07T04:53:54;3.80;95.60
3550;DHT22;45572;48.804;8.330;2022-12-07T04:56:23;3.60;95.60
3550;DHT22;45572;48.804;8.330;2022-12-07T04:58:52;3.60;96.00
3550;DHT22;45572;48.804;8.330;2022-12-07T05:01:21;3.60;95.90
3550;DHT22;45572;48.804;8.330;2022-12-07T05:03:49;3.60;96.10
3550;DHT22;45572;48.804;8.330;2022-12-07T05:06:17;3.60;96.00
3550;DHT22;45572;48.804;8.330;2022-12-07T05:08:46;3.50;95.70
3550;DHT22;45572;48.804;8.330;2022-12-07T05:11:15;3.50;96.20
3550;DHT22;45572;48.804;8.330;2022-12-07T05:13:56;3.60;96.30
3550;DHT22;45572;48.804;8.330;2022-12-07T05:16:24;3.70;96.40
3550;DHT22;45572;48.804;8.330;2022-12-07T05:18:52;3.80;96.40
3550;DHT22;45572;48.804;8.330;2022-12-07T05:21:20;3.80;96.30
3550;DHT22;45572;48.804;8.330;2022-12-07T05:23:49;3.90;96.00
3550;DHT22;45572;48.804;8.330;2022-12-07T05:26:17;3.80;95.90
3550;DHT22;45572;48.804;8.330;2022-12-07T05:28:49;3.80;95.80
3550;DHT22;45572;48.804;8.330;2022-12-07T05:31:17;3.90;95.80
3550;DHT22;45572;48.804;8.330;2022-12-07T05:33:44;3.90;95.90
3550;DHT22;45572;48.804;8.330;2022-12-07T05:36:12;4.00;95.90
3550;DHT22;45572;48.804;8.330;2022-12-07T05:38:40;4.10;95.80
3550;DHT22;45572;48.804;8.330;2022-12-07T05:41:12;4.20;95.40
3550;DHT22;45572;48.804;8.330;2022-12-07T05:44:00;4.30;95.20
3550;DHT22;45572;48.804;8.330;2022-12-07T05:46:28;4.20;95.00
3550;DHT22;45572;48.804;8.330;2022-12-07T05:48:56;4.10;95.10
3550;DHT22;45572;48.804;8.330;2022-12-07T05:51:24;4.10;95.10
3550;DHT22;45572;48.804;8.330;2022-12-07T05:53:51;4.10;95.20
3550;DHT22;45572;48.804;8.330;2022-12-07T05:56:20;4.20;95.20
3550;DHT22;45572;48.804;8.330;2022-12-07T05:58:49;4.20;95.20
3550;DHT22;45572;48.804;8.330;2022-12-07T06:01:31;4.20;95.10
3550;DHT22;45572;48.804;8.330;2022-12-07T06:03:59;4.20;95.00
3550;DHT22;45572;48.804;8.330;2022-12-07T06:06:27;4.00;95.20
3550;DHT22;45572;48.804;8.330;2022-12-07T06:08:55;4.10;95.40
3550;DHT22;45572;48.804;8.330;2022-12-07T06:11:24;4.10;95.40
3550;DHT22;45572;48.804;8.330;2022-12-07T06:14:05;4.10;95.40
3550;DHT22;45572;48.804;8.330;2022-12-07T06:16:33;4.20;95.30
3550;DHT22;45572;48.804;8.330;2022-12-07T06:19:01;4.20;95.40
3550;DHT22;45572;48.804;8.330;2022-12-07T06:21:29;4.10;95.30
3550;DHT22;45572;48.804;8.330;2022-12-07T06:23:57;4.10;95.70
3550;DHT22;45572;48.804;8.330;2022-12-07T06:26:26;4.20;95.50
3550;DHT22;45572;48.804;8.330;2022-12-07T06:28:54;4.20;95.40
3550;DHT22;45572;48.804;8.330;2022-12-07T06:31:21;4.20;95.10
3550;DHT22;45572;48.804;8.330;2022-12-07T06:33:49;4.30;95.10
3550;DHT22;45572;48.804;8.330;2022-12-07T06:36:17;4.20;95.00
3550;DHT22;45572;48.804;8.330;2022-12-07T06:38:52;4.20;94.80
3550;DHT22;45572;48.804;8.330;2022-12-07T06:41:20;4.20;94.90
3550;DHT22;45572;48.804;8.330;2022-12-07T06:43:50;4.00;94.60
3550;DHT22;45572;48.804;8.330;2022-12-07T06:46:22;3.90;95.20
3550;DHT22;45572;48.804;8.330;2022-12-07T06:48:50;4.00;95.40
3550;DHT22;45572;48.804;8.330;2022-12-07T06:51:18;3.90;95.10
3550;DHT22;45572;48.804;8.330;2022-12-07T06:53:46;4.00;95.20
3550;DHT22;45572;48.804;8.330;2022-12-07T06:56:14;3.90;95.20
3550;DHT22;45572;48.804;8.330;2022-12-07T06:58:42;3.90;95.20
3550;DHT22;45572;48.804;8.330;2022-12-07T07:01:12;3.90;95.30
3550;DHT22;45572;48.804;8.330;2022-12-07T07:03:40;3.90;95.40
3550;DHT22;45572;48.804;8.330;2022-12-07T07:06:10;3.90;95.20
3550;DHT22;45572;48.804;8.330;2022-12-07T07:08:39;3.80;95.00
3550;DHT22;45572;48.804;8.330;2022-12-07T07:11:08;3.90;95.10
3550;DHT22;45572;48.804;8.330;2022-12-07T07:13:37;4.00;94.90
3550;DHT22;45572;48.804;8.330;2022-12-07T07:16:05;4.00;94.50
3550;DHT22;45572;48.804;8.330;2022-12-07T07:18:35;4.10;94.40
3550;DHT22;45572;48.804;8.330;2022-12-07T07:21:04;4.10;94.20
3550;DHT22;45572;48.804;8.330;2022-12-07T07:23:31;3.90;93.70
3550;DHT22;45572;48.804;8.330;2022-12-07T07:25:59;4.00;94.30
3550;DHT22;45572;48.804;8.330;2022-12-07T07:28:27;4.00;94.50
3550;DHT22;45572;48.804;8.330;2022-12-07T07:30:55;4.20;95.10
3550;DHT22;45572;48.804;8.330;2022-12-07T07:33:23;4.20;94.40
3550;DHT22;45572;48.804;8.330;2022-12-07T07:35:52;4.20;94.30
3550;DHT22;45572;48.804;8.330;2022-12-07T07:38:19;4.30;94.30
3550;DHT22;45572;48.804;8.330;2022-12-07T07:40:47;4.30;93.80
3550;DHT22;45572;48.804;8.330;2022-12-07T07:43:15;4.40;93.40
3550;DHT22;45572;48.804;8.330;2022-12-07T07:45:44;4.30;93.40
3550;DHT22;45572;48.804;8.330;2022-12-07T07:48:13;4.20;92.90
3550;DHT22;45572;48.804;8.330;2022-12-07T07:50:41;4.00;93.00
3550;DHT22;45572;48.804;8.330;2022-12-07T07:53:10;4.00;93.40
3550;DHT22;45572;48.804;8.330;2022-12-07T07:55:37;4.10;93.40
3550;DHT22;45572;48.804;8.330;2022-12-07T07:58:05;4.20;93.40
3550;DHT22;45572;48.804;8.330;2022-12-07T08:00:33;4.30;93.20
3550;DHT22;45572;48.804;8.330;2022-12-07T08:03:02;4.40;93.20
3550;DHT22;45572;48.804;8.330;2022-12-07T08:05:33;4.50;92.50
3550;DHT22;45572;48.804;8.330;2022-12-07T08:08:01;4.50;92.20
3550;DHT22;45572;48.804;8.330;2022-12-07T08:10:30;4.70;92.30
3550;DHT22;45572;48.804;8.330;2022-12-07T08:12:58;4.80;91.90
3550;DHT22;45572;48.804;8.330;2022-12-07T08:15:42;4.90;91.60
3550;DHT22;45572;48.804;8.330;2022-12-07T08:18:10;5.10;90.80
3550;DHT22;45572;48.804;8.330;2022-12-07T08:20:39;5.20;89.80
3550;DHT22;45572;48.804;8.330;2022-12-07T08:23:08;5.30;89.20
3550;DHT22;45572;48.804;8.330;2022-12-07T08:25:38;5.40;89.20
3550;DHT22;45572;48.804;8.330;2022-12-07T08:28:06;5.50;89.10
3550;DHT22;45572;48.804;8.330;2022-12-07T08:30:34;5.60;89.00
3550;DHT22;45572;48.804;8.330;2022-12-07T08:33:01;5.60;89.20
3550;DHT22;45572;48.804;8.330;2022-12-07T08:35:29;5.70;87.70
3550;DHT22;45572;48.804;8.330;2022-12-07T08:37:57;5.60;87.20
3550;DHT22;45572;48.804;8.330;2022-12-07T08:40:25;5.80;88.00
3550;DHT22;45572;48.804;8.330;2022-12-07T08:42:56;5.80;87.40
3550;DHT22;45572;48.804;8.330;2022-12-07T08:45:24;5.70;87.60
3550;DHT22;45572;48.804;8.330;2022-12-07T08:47:59;5.80;87.90
3550;DHT22;45572;48.804;8.330;2022-12-07T08:50:31;5.80;87.60
3550;DHT22;45572;48.804;8.330;2022-12-07T08:53:00;5.60;87.70
3550;DHT22;45572;48.804;8.330;2022-12-07T08:55:28;5.40;88.40
3550;DHT22;45572;48.804;8.330;2022-12-07T08:57:59;5.20;88.50
3550;DHT22;45572;48.804;8.330;2022-12-07T09:00:27;5.10;88.80
3550;DHT22;45572;48.804;8.330;2022-12-07T09:02:55;5.20;89.50
3550;DHT22;45572;48.804;8.330;2022-12-07T09:05:22;5.20;89.30
3550;DHT22;45572;48.804;8.330;2022-12-07T09:07:54;5.20;89.00
3550;DHT22;45572;48.804;8.330;2022-12-07T09:10:23;5.20;89.10
3550;DHT22;45572;48.804;8.330;2022-12-07T09:12:51;5.20;90.10
3550;DHT22;45572;48.804;8.330;2022-12-07T09:15:20;5.10;89.30
3550;DHT22;45572;48.804;8.330;2022-12-07T09:17:48;4.90;89.50
3550;DHT22;45572;48.804;8.330;2022-12-07T09:20:15;4.90;90.10
3550;DHT22;45572;48.804;8.330;2022-12-07T09:22:46;4.80;90.10
3550;DHT22;45572;48.804;8.330;2022-12-07T09:25:14;4.60;91.10
3550;DHT22;45572;48.804;8.330;2022-12-07T09:27:42;4.50;92.00
3550;DHT22;45572;48.804;8.330;2022-12-07T09:30:10;4.60;92.60
3550;DHT22;45572;48.804;8.330;2022-12-07T09:32:39;4.70;92.50
3550;DHT22;45572;48.804;8.330;2022-12-07T09:35:07;4.60;92.50
3550;DHT22;45572;48.804;8.330;2022-12-07T09:37:35;4.40;93.50
3550;DHT22;45572;48.804;8.330;2022-12-07T09:40:04;4.30;94.20
3550;DHT22;45572;48.804;8.330;2022-12-07T09:42:34;4.30;94.00
3550;DHT22;45572;48.804;8.330;2022-12-07T09:45:05;4.40;94.00
3550;DHT22;45572;48.804;8.330;2022-12-07T09:47:33;4.20;93.60
3550;DHT22;45572;48.804;8.330;2022-12-07T09:50:06;4.10;93.50
3550;DHT22;45572;48.804;8.330;2022-12-07T09:52:38;4.10;94.20
3550;DHT22;45572;48.804;8.330;2022-12-07T09:55:11;4.20;94.60
3550;DHT22;45572;48.804;8.330;2022-12-07T09:57:39;4.30;95.00
3550;DHT22;45572;48.804;8.330;2022-12-07T10:00:12;4.40;95.20
3550;DHT22;45572;48.804;8.330;2022-12-07T10:02:42;4.60;95.30
3550;DHT22;45572;48.804;8.330;2022-12-07T10:05:15;4.70;94.90
3550;DHT22;45572;48.804;8.330;2022-12-07T10:07:50;4.80;94.70
3550;DHT22;45572;48.804;8.330;2022-12-07T10:10:23;4.90;94.50
3550;DHT22;45572;48.804;8.330;2022-12-07T10:12:57;5.00;94.20
3550;DHT22;45572;48.804;8.330;2022-12-07T10:15:41;5.00;94.00
3550;DHT22;45572;48.804;8.330;2022-12-07T10:18:19;5.10;93.90
3550;DHT22;45572;48.804;8.330;2022-12-07T10:21:04;5.10;94.00
3550;DHT22;45572;48.804;8.330;2022-12-07T10:23:36;5.20;94.00
3550;DHT22;45572;48.804;8.330;2022-12-07T10:29:15;5.20;94.00
3550;DHT22;45572;48.804;8.330;2022-12-07T10:31:45;5.20;93.90
3550;DHT22;45572;48.804;8.330;2022-12-07T10:34:22;5.10;94.50
3550;DHT22;45572;48.804;8.330;2022-12-07T10:36:54;5.10;94.80
3550;DHT22;45572;48.804;8.330;2022-12-07T10:39:41;5.10;94.50
3550;DHT22;45572;48.804;8.330;2022-12-07T10:42:16;5.10;94.60
3550;DHT22;45572;48.804;8.330;2022-12-07T10:44:45;5.20;94.60
3550;DHT22;45572;48.804;8.330;2022-12-07T10:47:22;5.10;94.40
3550;DHT22;45572;48.804;8.330;2022-12-07T10:52:55;5.20;94.30
3550;DHT22;45572;48.804;8.330;2022-12-07T10:55:34;5.20;94.10
3550;DHT22;45572;48.804;8.330;2022-12-07T10:58:21;5.20;94.20
3550;DHT22;45572;48.804;8.330;2022-12-07T11:00:58;5.20;94.20
3550;DHT22;45572;48.804;8.330;2022-12-07T11:03:40;5.20;94.40
3550;DHT22;45572;48.804;8.330;2022-12-07T11:14:40;5.30;94.00
3550;DHT22;45572;48.804;8.330;2022-12-07T11:17:28;5.40;94.30
3550;DHT22;45572;48.804;8.330;2022-12-07T11:20:05;5.40;94.30
3550;DHT22;45572;48.804;8.330;2022-12-07T11:23:12;5.40;94.50
3550;DHT22;45572;48.804;8.330;2022-12-07T11:25:52;5.30;94.70
3550;DHT22;45572;48.804;8.330;2022-12-07T11:28:32;5.20;95.40
3550;DHT22;45572;48.804;8.330;2022-12-07T11:31:12;5.30;95.30
3550;DHT22;45572;48.804;8.330;2022-12-07T11:33:55;5.30;95.10
3550;DHT22;45572;48.804;8.330;2022-12-07T11:36:36;5.30;95.00
3550;DHT22;45572;48.804;8.330;2022-12-07T11:39:11;5.40;94.70
3550;DHT22;45572;48.804;8.330;2022-12-07T11:41:47;5.50;94.40
3550;DHT22;45572;48.804;8.330;2022-12-07T11:44:26;5.50;94.20
3550;DHT22;45572;48.804;8.330;2022-12-07T11:47:04;5.70;94.20
3550;DHT22;45572;48.804;8.330;2022-12-07T11:49:41;5.80;94.20
3550;DHT22;45572;48.804;8.330;2022-12-07T11:52:17;5.80;94.00
3550;DHT22;45572;48.804;8.330;2022-12-07T11:54:50;5.80;93.50
3550;DHT22;45572;48.804;8.330;2022-12-07T11:57:27;5.80;93.70
3550;DHT22;45572;48.804;8.330;2022-12-07T12:00:00;5.90;92.90
3550;DHT22;45572;48.804;8.330;2022-12-07T12:02:38;5.90;92.70
3550;DHT22;45572;48.804;8.330;2022-12-07T12:05:16;5.80;92.50
3550;DHT22;45572;48.804;8.330;2022-12-07T12:07:47;5.70;92.50
3550;DHT22;45572;48.804;8.330;2022-12-07T12:10:45;5.70;92.80
3550;DHT22;45572;48.804;8.330;2022-12-07T12:16:46;5.80;92.00
3550;DHT22;45572;48.804;8.330;2022-12-07T12:19:24;5.70;92.10
3550;DHT22;45572;48.804;8.330;2022-12-07T12:21:57;5.70;92.30
3550;DHT22;45572;48.804;8.330;2022-12-07T12:24:29;5.60;92.50
3550;DHT22;45572;48.804;8.330;2022-12-07T12:27:05;5.70;92.10
3550;DHT22;45572;48.804;8.330;2022-12-07T12:29:35;5.90;92.30
3550;DHT22;45572;48.804;8.330;2022-12-07T12:32:07;6.00;92.20
3550;DHT22;45572;48.804;8.330;2022-12-07T12:34:51;5.90;91.80
3550;DHT22;45572;48.804;8.330;2022-12-07T12:37:40;5.80;92.30
3550;DHT22;45572;48.804;8.330;2022-12-07T12:49:33;5.60;92.90
3550;DHT22;45572;48.804;8.330;2022-12-07T12:55:12;5.60;93.10
3550;DHT22;45572;48.804;8.330;2022-12-07T12:57:43;5.60;92.60
3550;DHT22;45572;48.804;8.330;2022-12-07T13:00:17;5.70;92.40
3550;DHT22;45572;48.804;8.330;2022-12-07T13:02:50;5.80;92.20
3550;DHT22;45572;48.804;8.330;2022-12-07T13:05:20;5.70;91.90
3550;DHT22;45572;48.804;8.330;2022-12-07T13:07:54;5.70;92.00
3550;DHT22;45572;48.804;8.330;2022-12-07T13:10:34;5.60;91.60
3550;DHT22;45572;48.804;8.330;2022-12-07T13:13:04;5.70;92.00
3550;DHT22;45572;48.804;8.330;2022-12-07T13:15:35;5.70;91.80
3550;DHT22;45572;48.804;8.330;2022-12-07T13:20:50;5.80;92.20
3550;DHT22;45572;48.804;8.330;2022-12-07T13:23:21;5.90;91.80
3550;DHT22;45572;48.804;8.330;2022-12-07T13:25:55;5.90;91.20
3550;DHT22;45572;48.804;8.330;2022-12-07T13:28:31;6.00;91.50
3550;DHT22;45572;48.804;8.330;2022-12-07T13:31:08;6.00;91.60
3550;DHT22;45572;48.804;8.330;2022-12-07T13:33:37;6.10;91.70
3550;DHT22;45572;48.804;8.330;2022-12-07T13:36:16;6.00;90.80
3550;DHT22;45572;48.804;8.330;2022-12-07T13:38:51;6.10;91.20
3550;DHT22;45572;48.804;8.330;2022-12-07T13:41:21;6.10;91.10
3550;DHT22;45572;48.804;8.330;2022-12-07T13:43:53;6.00;91.10
3550;DHT22;45572;48.804;8.330;2022-12-07T13:46:29;5.90;91.00
3550;DHT22;45572;48.804;8.330;2022-12-07T13:48:58;5.70;91.30
3550;DHT22;45572;48.804;8.330;2022-12-07T13:51:27;5.60;91.50
3550;DHT22;45572;48.804;8.330;2022-12-07T13:54:00;5.50;91.40
3550;DHT22;45572;48.804;8.330;2022-12-07T13:56:33;5.50;91.60
3550;DHT22;45572;48.804;8.330;2022-12-07T13:59:02;5.60;92.20
3550;DHT22;45572;48.804;8.330;2022-12-07T14:01:31;5.60;91.70
3550;DHT22;45572;48.804;8.330;2022-12-07T14:04:18;5.60;91.60
3550;DHT22;45572;48.804;8.330;2022-12-07T14:06:49;5.60;91.70
3550;DHT22;45572;48.804;8.330;2022-12-07T14:09:21;5.60;91.70
3550;DHT22;45572;48.804;8.330;2022-12-07T14:11:53;5.60;91.60
3550;DHT22;45572;48.804;8.330;2022-12-07T14:14:22;5.70;91.90
3550;DHT22;45572;48.804;8.330;2022-12-07T14:17:00;5.70;91.50
3550;DHT22;45572;48.804;8.330;2022-12-07T14:19:46;5.60;91.50
3550;DHT22;45572;48.804;8.330;2022-12-07T14:22:24;5.50;91.40
3550;DHT22;45572;48.804;8.330;2022-12-07T14:24:59;5.50;91.90
3550;DHT22;45572;48.804;8.330;2022-12-07T14:27:34;5.60;92.10
3550;DHT22;45572;48.804;8.330;2022-12-07T14:30:05;5.70;92.00
3550;DHT22;45572;48.804;8.330;2022-12-07T14:32:35;5.80;92.00
3550;DHT22;45572;48.804;8.330;2022-12-07T14:35:10;5.80;91.30
3550;DHT22;45572;48.804;8.330;2022-12-07T14:37:39;5.80;91.20
3550;DHT22;45572;48.804;8.330;2022-12-07T14:40:12;5.90;91.60
3550;DHT22;45572;48.804;8.330;2022-12-07T14:42:42;5.90;91.60
3550;DHT22;45572;48.804;8.330;2022-12-07T14:45:15;5.90;91.70
3550;DHT22;45572;48.804;8.330;2022-12-07T14:47:45;5.90;91.20
3550;DHT22;45572;48.804;8.330;2022-12-07T14:50:37;6.00;91.00
3550;DHT22;45572;48.804;8.330;2022-12-07T14:53:29;6.00;90.70
3550;DHT22;45572;48.804;8.330;2022-12-07T14:55:57;6.00;90.50
3550;DHT22;45572;48.804;8.330;2022-12-07T14:58:26;6.00;90.60
3550;DHT22;45572;48.804;8.330;2022-12-07T15:00:54;5.90;90.80
3550;DHT22;45572;48.804;8.330;2022-12-07T15:03:22;5.90;90.90
3550;DHT22;45572;48.804;8.330;2022-12-07T15:05:50;6.00;91.10
3550;DHT22;45572;48.804;8.330;2022-12-07T15:08:17;5.90;91.00
3550;DHT22;45572;48.804;8.330;2022-12-07T15:10:45;6.00;91.20
3550;DHT22;45572;48.804;8.330;2022-12-07T15:13:13;6.00;91.00
3550;DHT22;45572;48.804;8.330;2022-12-07T15:15:56;6.00;91.00
3550;DHT22;45572;48.804;8.330;2022-12-07T15:18:24;6.10;91.00
3550;DHT22;45572;48.804;8.330;2022-12-07T15:20:52;6.00;91.00
3550;DHT22;45572;48.804;8.330;2022-12-07T15:23:20;6.00;91.00
3550;DHT22;45572;48.804;8.330;2022-12-07T15:25:48;6.10;90.80
3550;DHT22;45572;48.804;8.330;2022-12-07T15:28:16;6.10;90.90
3550;DHT22;45572;48.804;8.330;2022-12-07T15:30:44;6.00;90.70
3550;DHT22;45572;48.804;8.330;2022-12-07T15:33:14;6.00;90.70
3550;DHT22;45572;48.804;8.330;2022-12-07T15:35:42;6.00;90.70
3550;DHT22;45572;48.804;8.330;2022-12-07T15:38:11;6.00;90.90
3550;DHT22;45572;48.804;8.330;2022-12-07T15:40:39;6.00;90.70
3550;DHT22;45572;48.804;8.330;2022-12-07T15:43:08;5.90;90.60
3550;DHT22;45572;48.804;8.330;2022-12-07T15:45:57;5.90;90.70
3550;DHT22;45572;48.804;8.330;2022-12-07T15:48:25;6.00;90.70
3550;DHT22;45572;48.804;8.330;2022-12-07T15:51:02;6.00;90.90
3550;DHT22;45572;48.804;8.330;2022-12-07T15:53:30;6.00;90.80
3550;DHT22;45572;48.804;8.330;2022-12-07T15:55:58;5.90;90.50
3550;DHT22;45572;48.804;8.330;2022-12-07T15:58:26;5.90;90.60
3550;DHT22;45572;48.804;8.330;2022-12-07T16:00:53;5.80;90.80
3550;DHT22;45572;48.804;8.330;2022-12-07T16:03:21;5.90;91.00
3550;DHT22;45572;48.804;8.330;2022-12-07T16:05:51;6.00;90.80
3550;DHT22;45572;48.804;8.330;2022-12-07T16:08:19;5.90;90.70
3550;DHT22;45572;48.804;8.330;2022-12-07T16:10:47;5.90;90.70
3550;DHT22;45572;48.804;8.330;2022-12-07T16:13:15;5.80;90.80
3550;DHT22;45572;48.804;8.330;2022-12-07T16:15:44;5.90;90.70
3550;DHT22;45572;48.804;8.330;2022-12-07T16:18:12;5.80;90.80
3550;DHT22;45572;48.804;8.330;2022-12-07T16:20:40;5.90;91.10
3550;DHT22;45572;48.804;8.330;2022-12-07T16:23:09;5.70;90.50
3550;DHT22;45572;48.804;8.330;2022-12-07T16:25:37;5.60;91.00
3550;DHT22;45572;48.804;8.330;2022-12-07T16:28:05;5.60;91.50
3550;DHT22;45572;48.804;8.330;2022-12-07T16:30:32;5.60;91.50
3550;DHT22;45572;48.804;8.330;2022-12-07T16:33:00;5.50;91.60
3550;DHT22;45572;48.804;8.330;2022-12-07T16:35:29;5.50;91.60
3550;DHT22;45572;48.804;8.330;2022-12-07T16:37:56;5.30;91.90
3550;DHT22;45572;48.804;8.330;2022-12-07T16:40:25;5.20;92.50
3550;DHT22;45572;48.804;8.330;2022-12-07T16:42:53;5.10;92.90
3550;DHT22;45572;48.804;8.330;2022-12-07T16:45:22;5.20;93.30
3550;DHT22;45572;48.804;8.330;2022-12-07T16:47:50;5.20;93.20
3550;DHT22;45572;48.804;8.330;2022-12-07T16:50:18;5.30;93.00
3550;DHT22;45572;48.804;8.330;2022-12-07T16:52:45;5.40;93.10
3550;DHT22;45572;48.804;8.330;2022-12-07T16:55:13;5.40;92.30
3550;DHT22;45572;48.804;8.330;2022-12-07T16:57:43;5.50;92.40
3550;DHT22;45572;48.804;8.330;2022-12-07T17:00:11;5.50;92.50
3550;DHT22;45572;48.804;8.330;2022-12-07T17:02:39;5.60;92.70